sensor_id;sensor_type;location;lat;lon;timestamp;pressure;altitude;pressure_sealevel;temperature;humidity
71666;BME280;59503;53.486;10.196;2024-03-29T00:00:41;99480.06;;;6.06;100.00
71666;BME280;59503;53.486;10.196;2024-03-29T00:03:09;99477.69;;;6.01;100.00
71666;BME280;59503;53.486;10.196;2024-03-29T00:05:35;99483.00;;;5.98;100.00
71666;BME280;59503;53.486;10.196;2024-03-29T00:08:01;99473.66;;;5.92;100.00
71666;BME280;59503;53.486;10.196;2024-03-29T00:10:26;99476.59;;;5.83;100.00
71666;BME280;59503;53.486;10.196;2024-03-29T00:12:52;99479.03;;;5.69;100.00
71666;BME280;59503;53.486;10.196;2024-03-29T00:15:17;99476.94;;;5.59;100.00
71666;BME280;59503;53.486;10.196;2024-03-29T00:17:43;99471.72;;;5.47;100.00
71666;BME280;59503;53.486;10.196;2024-03-29T00:20:09;99474.72;;;5.42;100.00
71666;BME280;59503;53.486;10.196;2024-03-29T00:22:34;99475.38;;;5.36;100.00
71666;BME280;59503;53.486;10.196;2024-03-29T00:25:00;99488.69;;;5.29;100.00
71666;BME280;59503;53.486;10.196;2024-03-29T00:27:25;99485.22;;;5.28;100.00
71666;BME280;59503;53.486;10.196;2024-03-29T00:29:53;99478.34;;;5.31;100.00
71666;BME280;59503;53.486;10.196;2024-03-29T00:32:22;99470.84;;;5.21;100.00
71666;BME280;59503;53.486;10.196;2024-03-29T00:34:50;99482.59;;;5.32;100.00
71666;BME280;59503;53.486;10.196;2024-03-29T00:37:16;99487.13;;;5.28;100.00
71666;BME280;59503;53.486;10.196;2024-03-29T00:39:41;99481.69;;;5.24;100.00
71666;BME280;59503;53.486;10.196;2024-03-29T00:42:10;99481.34;;;5.26;100.00
71666;BME280;59503;53.486;10.196;2024-03-29T00:44:38;99487.78;;;5.21;100.00
71666;BME280;59503;53.486;10.196;2024-03-29T00:47:04;99487.66;;;5.14;100.00
71666;BME280;59503;53.486;10.196;2024-03-29T00:49:30;99492.78;;;5.00;100.00
71666;BME280;59503;53.486;10.196;2024-03-29T00:51:56;99487.94;;;4.90;100.00
71666;BME280;59503;53.486;10.196;2024-03-29T00:54:21;99487.94;;;4.90;100.00
71666;BME280;59503;53.486;10.196;2024-03-29T00:56:49;99490.41;;;4.79;100.00
71666;BME280;59503;53.486;10.196;2024-03-29T00:59:15;99489.16;;;4.73;100.00
71666;BME280;59503;53.486;10.196;2024-03-29T01:01:40;99490.78;;;4.78;100.00
71666;BME280;59503;53.486;10.196;2024-03-29T01:04:06;99482.97;;;4.73;100.00
71666;BME280;59503;53.486;10.196;2024-03-29T01:06:32;99486.38;;;4.70;100.00
71666;BME280;59503;53.486;10.196;2024-03-29T01:08:57;99487.56;;;4.72;100.00
71666;BME280;59503;53.486;10.196;2024-03-29T01:11:23;99486.47;;;4.73;100.00
71666;BME280;59503;53.486;10.196;2024-03-29T01:13:48;99487.38;;;4.81;100.00
71666;BME280;59503;53.486;10.196;2024-03-29T01:16:14;99481.97;;;4.81;100.00
71666;BME280;59503;53.486;10.196;2024-03-29T01:18:39;99468.38;;;4.74;100.00
71666;BME280;59503;53.486;10.196;2024-03-29T01:21:06;99482.69;;;4.78;100.00
71666;BME280;59503;53.486;10.196;2024-03-29T01:23:32;99485.81;;;4.80;100.00
71666;BME280;59503;53.486;10.196;2024-03-29T01:25:57;99487.66;;;4.76;100.00
71666;BME280;59503;53.486;10.196;2024-03-29T01:28:22;99487.38;;;4.81;100.00
71666;BME280;59503;53.486;10.196;2024-03-29T01:30:54;99487.72;;;4.79;100.00
71666;BME280;59503;53.486;10.196;2024-03-29T01:33:20;99483.91;;;4.80;100.00
71666;BME280;59503;53.486;10.196;2024-03-29T01:35:46;99485.81;;;4.80;100.00
71666;BME280;59503;53.486;10.196;2024-03-29T01:38:11;99472.94;;;4.70;100.00
71666;BME280;59503;53.486;10.196;2024-03-29T01:40:37;99479.72;;;4.83;100.00
71666;BME280;59503;53.486;10.196;2024-03-29T01:43:03;99487.09;;;4.86;100.00
71666;BME280;59503;53.486;10.196;2024-03-29T01:45:29;99488.06;;;4.78;100.00
71666;BME280;59503;53.486;10.196;2024-03-29T01:47:56;99488.50;;;4.80;100.00
71666;BME280;59503;53.486;10.196;2024-03-29T01:50:21;99486.53;;;4.77;100.00
71666;BME280;59503;53.486;10.196;2024-03-29T01:52:48;99484.69;;;4.81;100.00
71666;BME280;59503;53.486;10.196;2024-03-29T01:55:14;99486.53;;;4.77;100.00
71666;BME280;59503;53.486;10.196;2024-03-29T01:57:40;99489.84;;;4.70;100.00
71666;BME280;59503;53.486;10.196;2024-03-29T02:00:07;99487.00;;;4.63;100.00
71666;BME280;59503;53.486;10.196;2024-03-29T02:02:33;99491.81;;;4.54;100.00
71666;BME280;59503;53.486;10.196;2024-03-29T02:04:58;99494.41;;;4.51;100.00
71666;BME280;59503;53.486;10.196;2024-03-29T02:07:25;99488.97;;;4.47;100.00
71666;BME280;59503;53.486;10.196;2024-03-29T02:09:50;99489.81;;;4.51;100.00
71666;BME280;59503;53.486;10.196;2024-03-29T02:12:16;99485.56;;;4.50;100.00
71666;BME280;59503;53.486;10.196;2024-03-29T02:14:41;99494.94;;;4.56;100.00
71666;BME280;59503;53.486;10.196;2024-03-29T02:17:08;99500.16;;;4.49;100.00
71666;BME280;59503;53.486;10.196;2024-03-29T02:19:34;99504.81;;;4.52;100.00
71666;BME280;59503;53.486;10.196;2024-03-29T02:21:59;99500.06;;;4.46;100.00
71666;BME280;59503;53.486;10.196;2024-03-29T02:24:26;99507.03;;;4.47;100.00
71666;BME280;59503;53.486;10.196;2024-03-29T02:26:54;99501.06;;;4.38;100.00
71666;BME280;59503;53.486;10.196;2024-03-29T02:29:21;99497.75;;;4.29;100.00
71666;BME280;59503;53.486;10.196;2024-03-29T02:31:47;99498.97;;;4.31;100.00
71666;BME280;59503;53.486;10.196;2024-03-29T02:34:13;99507.50;;;4.33;100.00
71666;BME280;59503;53.486;10.196;2024-03-29T02:36:38;99503.50;;;4.27;100.00
71666;BME280;59503;53.486;10.196;2024-03-29T02:39:04;99521.13;;;4.25;100.00
71666;BME280;59503;53.486;10.196;2024-03-29T02:41:29;99501.78;;;4.19;100.00
71666;BME280;59503;53.486;10.196;2024-03-29T02:43:55;99518.97;;;4.15;100.00
71666;BME280;59503;53.486;10.196;2024-03-29T02:46:21;99527.31;;;4.10;100.00
71666;BME280;59503;53.486;10.196;2024-03-29T02:48:46;99528.41;;;4.09;100.00
71666;BME280;59503;53.486;10.196;2024-03-29T02:51:12;99519.84;;;4.03;100.00
71666;BME280;59503;53.486;10.196;2024-03-29T02:53:37;99526.84;;;4.08;100.00
71666;BME280;59503;53.486;10.196;2024-03-29T02:56:04;99523.47;;;4.11;100.00
71666;BME280;59503;53.486;10.196;2024-03-29T02:58:30;99520.88;;;4.14;100.00
71666;BME280;59503;53.486;10.196;2024-03-29T03:00:55;99521.91;;;4.10;100.00
71666;BME280;59503;53.486;10.196;2024-03-29T03:03:26;99515.94;;;4.01;100.00
71666;BME280;59503;53.486;10.196;2024-03-29T03:05:51;99515.06;;;3.97;100.00
71666;BME280;59503;53.486;10.196;2024-03-29T03:08:19;99511.16;;;3.94;100.00
71666;BME280;59503;53.486;10.196;2024-03-29T03:11:04;99515.66;;;3.90;100.00
71666;BME280;59503;53.486;10.196;2024-03-29T03:13:30;99516.97;;;3.96;100.00
71666;BME280;59503;53.486;10.196;2024-03-29T03:15:56;99515.75;;;3.94;100.00
71666;BME280;59503;53.486;10.196;2024-03-29T03:18:22;99514.66;;;3.95;100.00
71666;BME280;59503;53.486;10.196;2024-03-29T03:20:52;99494.41;;;4.01;100.00
71666;BME280;59503;53.486;10.196;2024-03-29T03:23:17;99494.84;;;4.03;100.00
71666;BME280;59503;53.486;10.196;2024-03-29T03:25:43;99487.38;;;4.12;100.00
71666;BME280;59503;53.486;10.196;2024-03-29T03:28:08;99483.41;;;4.06;100.00
71666;BME280;59503;53.486;10.196;2024-03-29T03:30:39;99484.69;;;4.12;100.00
71666;BME280;59503;53.486;10.196;2024-03-29T03:33:05;99479.47;;;4.19;100.00
71666;BME280;59503;53.486;10.196;2024-03-29T03:35:31;99476.94;;;4.26;100.00
71666;BME280;59503;53.486;10.196;2024-03-29T03:37:56;99476.50;;;4.24;100.00
71666;BME280;59503;53.486;10.196;2024-03-29T03:40:21;99478.75;;;4.22;100.00
71666;BME280;59503;53.486;10.196;2024-03-29T03:42:47;99485.09;;;4.29;100.00
71666;BME280;59503;53.486;10.196;2024-03-29T03:45:12;99489.97;;;4.24;100.00
71666;BME280;59503;53.486;10.196;2024-03-29T03:47:38;99491.19;;;4.26;100.00
71666;BME280;59503;53.486;10.196;2024-03-29T03:50:04;99497.31;;;4.27;100.00
71666;BME280;59503;53.486;10.196;2024-03-29T03:52:29;99511.13;;;4.25;100.00
71666;BME280;59503;53.486;10.196;2024-03-29T03:54:55;99507.31;;;4.26;100.00
71666;BME280;59503;53.486;10.196;2024-03-29T03:57:20;99520.34;;;4.24;100.00
71666;BME280;59503;53.486;10.196;2024-03-29T03:59:46;99501.16;;;4.26;100.00
71666;BME280;59503;53.486;10.196;2024-03-29T04:02:12;99497.41;;;4.30;100.00
71666;BME280;59503;53.486;10.196;2024-03-29T04:04:37;99493.34;;;4.21;100.00
71666;BME280;59503;53.486;10.196;2024-03-29T04:07:03;99506.69;;;4.33;100.00
71666;BME280;59503;53.486;10.196;2024-03-29T04:09:28;99515.22;;;4.35;100.00
71666;BME280;59503;53.486;10.196;2024-03-29T04:11:54;99516.91;;;4.43;100.00
71666;BME280;59503;53.486;10.196;2024-03-29T04:14:19;99502.69;;;4.42;100.00
71666;BME280;59503;53.486;10.196;2024-03-29T04:16:46;99496.41;;;4.54;100.00
71666;BME280;59503;53.486;10.196;2024-03-29T04:19:12;99484.97;;;4.57;100.00
71666;BME280;59503;53.486;10.196;2024-03-29T04:21:37;99496.13;;;4.59;100.00
71666;BME280;59503;53.486;10.196;2024-03-29T04:24:02;99490.75;;;4.59;100.00
71666;BME280;59503;53.486;10.196;2024-03-29T04:26:28;99505.69;;;4.56;100.00
71666;BME280;59503;53.486;10.196;2024-03-29T04:28:53;99504.47;;;4.54;100.00
71666;BME280;59503;53.486;10.196;2024-03-29T04:31:19;99496.41;;;4.54;100.00
71666;BME280;59503;53.486;10.196;2024-03-29T04:33:44;99493.44;;;4.59;100.00
71666;BME280;59503;53.486;10.196;2024-03-29T04:36:10;99493.50;;;4.62;100.00
71666;BME280;59503;53.486;10.196;2024-03-29T04:38:35;99492.59;;;4.74;100.00
71666;BME280;59503;53.486;10.196;2024-03-29T04:41:01;99496.59;;;4.80;100.00
71666;BME280;59503;53.486;10.196;2024-03-29T04:43:27;99475.25;;;4.71;100.00
71666;BME280;59503;53.486;10.196;2024-03-29T04:46:07;99499.28;;;4.80;100.00
71666;BME280;59503;53.486;10.196;2024-03-29T04:48:35;99491.06;;;4.92;100.00
71666;BME280;59503;53.486;10.196;2024-03-29T04:51:00;99504.94;;;4.94;100.00
71666;BME280;59503;53.486;10.196;2024-03-29T04:53:26;99512.72;;;4.99;100.00
71666;BME280;59503;53.486;10.196;2024-03-29T04:55:55;99509.06;;;5.07;100.00
71666;BME280;59503;53.486;10.196;2024-03-29T04:58:27;99507.22;;;5.11;100.00
71666;BME280;59503;53.486;10.196;2024-03-29T05:00:53;99516.28;;;5.22;100.00
71666;BME280;59503;53.486;10.196;2024-03-29T05:03:20;99516.66;;;5.21;100.00
71666;BME280;59503;53.486;10.196;2024-03-29T05:05:46;99531.75;;;5.25;100.00
71666;BME280;59503;53.486;10.196;2024-03-29T05:08:12;99535.16;;;5.22;100.00
71666;BME280;59503;53.486;10.196;2024-03-29T05:10:39;99529.34;;;5.20;100.00
71666;BME280;59503;53.486;10.196;2024-03-29T05:13:05;99537.84;;;5.22;100.00
71666;BME280;59503;53.486;10.196;2024-03-29T05:15:30;99529.53;;;5.31;100.00
71666;BME280;59503;53.486;10.196;2024-03-29T05:17:56;99529.63;;;5.34;100.00
71666;BME280;59503;53.486;10.196;2024-03-29T05:20:21;99533.34;;;5.30;100.00
71666;BME280;59503;53.486;10.196;2024-03-29T05:22:46;99531.38;;;5.27;100.00
71666;BME280;59503;53.486;10.196;2024-03-29T05:25:12;99549.59;;;5.33;100.00
71666;BME280;59503;53.486;10.196;2024-03-29T05:27:37;99543.09;;;5.34;100.00
71666;BME280;59503;53.486;10.196;2024-03-29T05:30:03;99540.09;;;5.39;100.00
71666;BME280;59503;53.486;10.196;2024-03-29T05:32:32;99547.41;;;5.39;100.00
71666;BME280;59503;53.486;10.196;2024-03-29T05:34:57;99547.03;;;5.40;100.00
71666;BME280;59503;53.486;10.196;2024-03-29T05:37:23;99545.59;;;5.46;100.00
71666;BME280;59503;53.486;10.196;2024-03-29T05:39:53;99551.06;;;5.50;100.00
71666;BME280;59503;53.486;10.196;2024-03-29T05:42:26;99556.53;;;5.53;100.00
71666;BME280;59503;53.486;10.196;2024-03-29T05:44:51;99567.81;;;5.59;100.00
71666;BME280;59503;53.486;10.196;2024-03-29T05:47:17;99575.53;;;5.60;100.00
71666;BME280;59503;53.486;10.196;2024-03-29T05:49:42;99585.22;;;5.65;100.00
71666;BME280;59503;53.486;10.196;2024-03-29T05:52:08;99570.41;;;5.74;100.00
71666;BME280;59503;53.486;10.196;2024-03-29T05:54:33;99578.97;;;5.80;100.00
71666;BME280;59503;53.486;10.196;2024-03-29T05:57:06;99566.72;;;5.82;100.00
71666;BME280;59503;53.486;10.196;2024-03-29T05:59:33;99566.38;;;5.84;100.00
71666;BME280;59503;53.486;10.196;2024-03-29T06:01:59;99566.78;;;5.86;100.00
71666;BME280;59503;53.486;10.196;2024-03-29T06:04:24;99566.06;;;5.89;100.00
71666;BME280;59503;53.486;10.196;2024-03-29T06:06:57;99582.31;;;5.92;100.00
71666;BME280;59503;53.486;10.196;2024-03-29T06:09:24;99579.63;;;5.92;100.00
71666;BME280;59503;53.486;10.196;2024-03-29T06:11:49;99577.00;;;5.96;100.00
71666;BME280;59503;53.486;10.196;2024-03-29T06:14:15;99577.88;;;6.03;100.00
71666;BME280;59503;53.486;10.196;2024-03-29T06:16:59;99583.41;;;6.10;100.00
71666;BME280;59503;53.486;10.196;2024-03-29T06:19:42;99578.84;;;6.14;100.00
71666;BME280;59503;53.486;10.196;2024-03-29T06:22:08;99587.81;;;6.22;100.00
71666;BME280;59503;53.486;10.196;2024-03-29T06:24:34;99583.66;;;6.24;100.00
71666;BME280;59503;53.486;10.196;2024-03-29T06:27:01;99592.97;;;6.30;100.00
71666;BME280;59503;53.486;10.196;2024-03-29T06:29:26;99589.97;;;6.36;100.00
71666;BME280;59503;53.486;10.196;2024-03-29T06:31:52;99594.19;;;6.33;100.00
71666;BME280;59503;53.486;10.196;2024-03-29T06:34:17;99593.94;;;6.42;100.00
71666;BME280;59503;53.486;10.196;2024-03-29T06:36:42;99596.34;;;6.47;100.00
71666;BME280;59503;53.486;10.196;2024-03-29T06:39:08;99600.97;;;6.46;100.00
71666;BME280;59503;53.486;10.196;2024-03-29T06:41:33;99595.91;;;6.45;100.00
71666;BME280;59503;53.486;10.196;2024-03-29T06:43:59;99593.22;;;6.45;100.00
71666;BME280;59503;53.486;10.196;2024-03-29T06:46:24;99601.00;;;6.50;100.00
71666;BME280;59503;53.486;10.196;2024-03-29T06:48:50;99596.03;;;6.52;100.00
71666;BME280;59503;53.486;10.196;2024-03-29T06:51:15;99597.59;;;6.53;100.00
71666;BME280;59503;53.486;10.196;2024-03-29T06:53:41;99602.66;;;6.58;100.00
71666;BME280;59503;53.486;10.196;2024-03-29T06:56:07;99603.53;;;6.62;100.00
71666;BME280;59503;53.486;10.196;2024-03-29T06:58:32;99600.91;;;6.69;100.00
71666;BME280;59503;53.486;10.196;2024-03-29T07:00:58;99608.34;;;6.75;100.00
71666;BME280;59503;53.486;10.196;2024-03-29T07:03:24;99587.50;;;6.76;100.00
71666;BME280;59503;53.486;10.196;2024-03-29T07:05:49;99601.50;;;6.81;100.00
71666;BME280;59503;53.486;10.196;2024-03-29T07:08:15;99598.41;;;6.83;100.00
71666;BME280;59503;53.486;10.196;2024-03-29T07:10:41;99600.06;;;6.91;100.00
71666;BME280;59503;53.486;10.196;2024-03-29T07:13:07;99609.44;;;6.97;100.00
71666;BME280;59503;53.486;10.196;2024-03-29T07:15:33;99620.34;;;7.04;100.00
71666;BME280;59503;53.486;10.196;2024-03-29T07:18:00;99609.63;;;7.11;100.00
71666;BME280;59503;53.486;10.196;2024-03-29T07:20:28;99617.44;;;7.19;100.00
71666;BME280;59503;53.486;10.196;2024-03-29T07:22:53;99605.56;;;7.24;100.00
71666;BME280;59503;53.486;10.196;2024-03-29T07:25:18;99621.50;;;7.32;100.00
71666;BME280;59503;53.486;10.196;2024-03-29T07:27:44;99630.84;;;7.38;100.00
71666;BME280;59503;53.486;10.196;2024-03-29T07:30:10;99635.56;;;7.45;100.00
71666;BME280;59503;53.486;10.196;2024-03-29T07:32:36;99626.69;;;7.48;100.00
71666;BME280;59503;53.486;10.196;2024-03-29T07:35:02;99627.59;;;7.55;100.00
71666;BME280;59503;53.486;10.196;2024-03-29T07:37:28;99638.47;;;7.63;100.00
71666;BME280;59503;53.486;10.196;2024-03-29T07:39:53;99617.19;;;7.61;100.00
71666;BME280;59503;53.486;10.196;2024-03-29T07:42:19;99632.41;;;7.73;100.00
71666;BME280;59503;53.486;10.196;2024-03-29T07:44:44;99646.09;;;7.87;100.00
71666;BME280;59503;53.486;10.196;2024-03-29T07:47:10;99646.97;;;7.94;100.00
71666;BME280;59503;53.486;10.196;2024-03-29T07:49:38;99636.94;;;7.98;100.00
71666;BME280;59503;53.486;10.196;2024-03-29T07:52:05;99646.34;;;8.08;100.00
71666;BME280;59503;53.486;10.196;2024-03-29T07:54:31;99646.38;;;8.11;100.00
71666;BME280;59503;53.486;10.196;2024-03-29T07:56:57;99653.03;;;8.21;100.00
71666;BME280;59503;53.486;10.196;2024-03-29T07:59:22;99656.59;;;8.25;100.00
71666;BME280;59503;53.486;10.196;2024-03-29T08:01:47;99654.72;;;8.32;100.00
71666;BME280;59503;53.486;10.196;2024-03-29T08:04:13;99645.81;;;8.32;100.00
71666;BME280;59503;53.486;10.196;2024-03-29T08:06:39;99648.97;;;8.37;100.00
71666;BME280;59503;53.486;10.196;2024-03-29T08:09:04;99661.78;;;8.44;100.00
71666;BME280;59503;53.486;10.196;2024-03-29T08:11:30;99674.53;;;8.43;100.00
71666;BME280;59503;53.486;10.196;2024-03-29T08:13:55;99672.22;;;8.45;100.00
71666;BME280;59503;53.486;10.196;2024-03-29T08:16:21;99671.88;;;8.50;100.00
71666;BME280;59503;53.486;10.196;2024-03-29T08:18:46;99688.09;;;8.47;100.00
71666;BME280;59503;53.486;10.196;2024-03-29T08:21:15;99689.22;;;8.42;100.00
71666;BME280;59503;53.486;10.196;2024-03-29T08:23:41;99691.19;;;8.45;100.00
71666;BME280;59503;53.486;10.196;2024-03-29T08:26:07;99690.44;;;8.48;100.00
71666;BME280;59503;53.486;10.196;2024-03-29T08:28:33;99685.56;;;8.64;100.00
71666;BME280;59503;53.486;10.196;2024-03-29T08:31:07;99693.63;;;8.57;100.00
71666;BME280;59503;53.486;10.196;2024-03-29T08:33:35;99681.66;;;8.58;100.00
71666;BME280;59503;53.486;10.196;2024-03-29T08:36:04;99683.97;;;8.56;100.00
71666;BME280;59503;53.486;10.196;2024-03-29T08:38:29;99679.34;;;8.60;100.00
71666;BME280;59503;53.486;10.196;2024-03-29T08:40:54;99679.00;;;8.65;100.00
71666;BME280;59503;53.486;10.196;2024-03-29T08:43:20;99646.75;;;8.53;100.00
71666;BME280;59503;53.486;10.196;2024-03-29T08:45:45;99641.69;;;8.45;100.00
71666;BME280;59503;53.486;10.196;2024-03-29T08:48:11;99652.88;;;8.40;100.00
71666;BME280;59503;53.486;10.196;2024-03-29T08:50:37;99654.44;;;8.44;100.00
71666;BME280;59503;53.486;10.196;2024-03-29T08:53:03;99651.31;;;8.42;100.00
71666;BME280;59503;53.486;10.196;2024-03-29T08:55:30;99635.06;;;8.42;100.00
71666;BME280;59503;53.486;10.196;2024-03-29T08:57:57;99649.00;;;8.41;100.00
71666;BME280;59503;53.486;10.196;2024-03-29T09:00:27;99638.13;;;8.37;100.00
71666;BME280;59503;53.486;10.196;2024-03-29T09:02:53;99633.50;;;8.38;100.00
71666;BME280;59503;53.486;10.196;2024-03-29T09:05:19;99615.72;;;8.40;100.00
71666;BME280;59503;53.486;10.196;2024-03-29T09:07:45;99609.19;;;8.45;100.00
71666;BME280;59503;53.486;10.196;2024-03-29T09:10:11;99612.72;;;8.52;100.00
71666;BME280;59503;53.486;10.196;2024-03-29T09:12:36;99617.03;;;8.60;100.00
71666;BME280;59503;53.486;10.196;2024-03-29T09:15:02;99615.13;;;8.64;100.00
71666;BME280;59503;53.486;10.196;2024-03-29T09:17:27;99622.50;;;8.67;100.00
71666;BME280;59503;53.486;10.196;2024-03-29T09:19:53;99610.53;;;8.72;100.00
71666;BME280;59503;53.486;10.196;2024-03-29T09:22:19;99610.13;;;8.66;100.00
71666;BME280;59503;53.486;10.196;2024-03-29T09:24:44;99614.38;;;8.67;100.00
71666;BME280;59503;53.486;10.196;2024-03-29T09:27:10;99597.34;;;8.63;100.00
71666;BME280;59503;53.486;10.196;2024-03-29T09:29:35;99606.66;;;8.69;100.00
71666;BME280;59503;53.486;10.196;2024-03-29T09:32:01;99611.25;;;8.65;100.00
71666;BME280;59503;53.486;10.196;2024-03-29T09:34:29;99603.53;;;8.67;100.00
71666;BME280;59503;53.486;10.196;2024-03-29T09:36:56;99613.63;;;8.70;100.00
71666;BME280;59503;53.486;10.196;2024-03-29T09:39:22;99612.13;;;8.76;100.00
71666;BME280;59503;53.486;10.196;2024-03-29T09:41:49;99606.72;;;8.76;100.00
71666;BME280;59503;53.486;10.196;2024-03-29T09:44:15;99600.94;;;8.82;100.00
71666;BME280;59503;53.486;10.196;2024-03-29T09:46:41;99604.44;;;8.86;100.00
71666;BME280;59503;53.486;10.196;2024-03-29T09:49:08;99592.88;;;8.89;100.00
71666;BME280;59503;53.486;10.196;2024-03-29T09:51:34;99590.88;;;8.86;100.00
71666;BME280;59503;53.486;10.196;2024-03-29T09:54:00;99586.63;;;8.81;100.00
71666;BME280;59503;53.486;10.196;2024-03-29T09:56:28;99590.88;;;8.78;100.00
71666;BME280;59503;53.486;10.196;2024-03-29T09:58:54;99592.06;;;8.85;100.00
71666;BME280;59503;53.486;10.196;2024-03-29T10:01:20;99588.13;;;8.75;100.00
71666;BME280;59503;53.486;10.196;2024-03-29T10:03:49;99590.47;;;8.76;100.00
71666;BME280;59503;53.486;10.196;2024-03-29T10:06:18;99585.03;;;8.76;100.00
71666;BME280;59503;53.486;10.196;2024-03-29T10:08:45;99578.84;;;8.76;100.00
71666;BME280;59503;53.486;10.196;2024-03-29T10:11:11;99562.19;;;8.77;100.00
71666;BME280;59503;53.486;10.196;2024-03-29T10:13:36;99564.56;;;8.82;100.00
71666;BME280;59503;53.486;10.196;2024-03-29T10:16:03;99555.72;;;8.93;100.00
71666;BME280;59503;53.486;10.196;2024-03-29T10:18:29;99561.56;;;8.98;100.00
71666;BME280;59503;53.486;10.196;2024-03-29T10:21:07;99555.78;;;9.07;100.00
71666;BME280;59503;53.486;10.196;2024-03-29T10:23:34;99565.91;;;9.17;100.00
71666;BME280;59503;53.486;10.196;2024-03-29T10:26:01;99571.31;;;9.17;100.00
71666;BME280;59503;53.486;10.196;2024-03-29T10:28:34;99561.25;;;9.21;100.00
71666;BME280;59503;53.486;10.196;2024-03-29T10:31:02;99557.78;;;9.17;100.00
71666;BME280;59503;53.486;10.196;2024-03-29T10:33:29;99557.03;;;9.23;100.00
71666;BME280;59503;53.486;10.196;2024-03-29T10:35:59;99545.34;;;9.09;100.00
71666;BME280;59503;53.486;10.196;2024-03-29T10:38:25;99555.44;;;9.12;100.00
71666;BME280;59503;53.486;10.196;2024-03-29T10:40:52;99555.81;;;9.14;100.00
71666;BME280;59503;53.486;10.196;2024-03-29T10:43:18;99556.56;;;9.11;100.00
71666;BME280;59503;53.486;10.196;2024-03-29T10:45:45;99555.03;;;9.13;100.00
71666;BME280;59503;53.486;10.196;2024-03-29T10:48:12;99551.16;;;9.14;100.00
71666;BME280;59503;53.486;10.196;2024-03-29T10:50:41;99552.34;;;9.13;100.00
71666;BME280;59503;53.486;10.196;2024-03-29T10:53:08;99558.94;;;9.19;100.00
71666;BME280;59503;53.486;10.196;2024-03-29T10:55:34;99564.72;;;9.14;100.00
71666;BME280;59503;53.486;10.196;2024-03-29T10:58:01;99562.00;;;9.14;100.00
71666;BME280;59503;53.486;10.196;2024-03-29T11:00:33;99545.00;;;9.21;100.00
71666;BME280;59503;53.486;10.196;2024-03-29T11:06:03;99548.19;;;9.40;100.00
71666;BME280;59503;53.486;10.196;2024-03-29T11:08:32;99545.47;;;9.44;100.00
71666;BME280;59503;53.486;10.196;2024-03-29T11:11:00;99555.97;;;9.52;100.00
71666;BME280;59503;53.486;10.196;2024-03-29T11:13:45;99555.97;;;9.49;100.00
71666;BME280;59503;53.486;10.196;2024-03-29T11:16:13;99561.78;;;9.51;100.00
71666;BME280;59503;53.486;10.196;2024-03-29T11:18:41;99563.72;;;9.54;100.00
71666;BME280;59503;53.486;10.196;2024-03-29T11:21:08;99556.34;;;9.47;100.00
71666;BME280;59503;53.486;10.196;2024-03-29T11:23:36;99566.44;;;9.54;100.00
71666;BME280;59503;53.486;10.196;2024-03-29T11:26:02;99570.34;;;9.67;100.00
71666;BME280;59503;53.486;10.196;2024-03-29T11:28:33;99562.63;;;9.76;100.00
71666;BME280;59503;53.486;10.196;2024-03-29T11:31:02;99570.78;;;9.97;100.00
71666;BME280;59503;53.486;10.196;2024-03-29T11:33:34;99570.06;;;10.14;100.00
71666;BME280;59503;53.486;10.196;2024-03-29T11:36:10;99578.22;;;10.21;100.00
71666;BME280;59503;53.486;10.196;2024-03-29T11:38:36;99567.75;;;10.27;100.00
71666;BME280;59503;53.486;10.196;2024-03-29T11:41:12;99571.63;;;10.36;100.00
71666;BME280;59503;53.486;10.196;2024-03-29T11:43:38;99577.03;;;10.50;100.00
71666;BME280;59503;53.486;10.196;2024-03-29T11:46:11;99578.22;;;10.46;100.00
71666;BME280;59503;53.486;10.196;2024-03-29T11:48:38;99588.69;;;10.54;100.00
71666;BME280;59503;53.486;10.196;2024-03-29T11:51:05;99582.47;;;10.75;100.00
71666;BME280;59503;53.486;10.196;2024-03-29T11:53:31;99572.00;;;10.77;100.00
71666;BME280;59503;53.486;10.196;2024-03-29T11:55:58;99564.19;;;10.82;100.00
71666;BME280;59503;53.486;10.196;2024-03-29T11:58:24;99565.72;;;11.01;100.00
71666;BME280;59503;53.486;10.196;2024-03-29T12:00:51;99558.34;;;11.01;100.00
71666;BME280;59503;53.486;10.196;2024-03-29T12:03:17;99569.22;;;10.98;100.00
71666;BME280;59503;53.486;10.196;2024-03-29T12:05:44;99572.34;;;10.89;100.00
71666;BME280;59503;53.486;10.196;2024-03-29T12:08:10;99573.13;;;10.97;100.00
71666;BME280;59503;53.486;10.196;2024-03-29T12:10:36;99573.88;;;10.94;100.00
71666;BME280;59503;53.486;10.196;2024-03-29T12:13:04;99571.97;;;10.84;100.00
71666;BME280;59503;53.486;10.196;2024-03-29T12:15:29;99573.13;;;10.86;100.00
71666;BME280;59503;53.486;10.196;2024-03-29T12:17:57;99582.44;;;10.85;100.00
71666;BME280;59503;53.486;10.196;2024-03-29T12:20:22;99569.63;;;10.89;100.00
71666;BME280;59503;53.486;10.196;2024-03-29T12:22:48;99569.22;;;10.94;100.00
71666;BME280;59503;53.486;10.196;2024-03-29T12:25:13;99566.88;;;11.07;100.00
71666;BME280;59503;53.486;10.196;2024-03-29T12:27:39;99571.84;;;11.22;100.00
71666;BME280;59503;53.486;10.196;2024-03-29T12:30:06;99571.41;;;11.42;100.00
71666;BME280;59503;53.486;10.196;2024-03-29T12:32:32;99565.94;;;11.45;100.00
71666;BME280;59503;53.486;10.196;2024-03-29T12:35:26;99567.41;;;11.71;100.00
71666;BME280;59503;53.486;10.196;2024-03-29T12:37:52;99573.53;;;11.85;100.00
71666;BME280;59503;53.486;10.196;2024-03-29T12:40:19;99578.16;;;11.95;100.00
71666;BME280;59503;53.486;10.196;2024-03-29T12:42:48;99589.34;;;12.08;100.00
71666;BME280;59503;53.486;10.196;2024-03-29T12:45:14;99590.72;;;12.33;100.00
71666;BME280;59503;53.486;10.196;2024-03-29T12:47:40;99600.47;;;12.31;100.00